createdAt,value
2023-05-14T00:02:36.000Z,8.01
2023-05-14T00:07:36.000Z,8.11
2023-05-14T00:12:36.000Z,7.56
2023-05-14T00:17:35.000Z,8.06
2023-05-14T00:22:35.000Z,8.17
2023-05-14T00:27:35.000Z,11.25
2023-05-14T00:32:35.000Z,9.99
2023-05-14T00:37:36.000Z,8.89
2023-05-14T00:42:35.000Z,7.9
2023-05-14T00:47:35.000Z,7.9
2023-05-14T00:52:35.000Z,7.1
2023-05-14T00:57:36.000Z,7.76
2023-05-14T01:02:35.000Z,7.96
2023-05-14T01:07:36.000Z,7.95
2023-05-14T01:12:35.000Z,7.5
2023-05-14T01:17:35.000Z,8.51
2023-05-14T01:22:36.000Z,7.83
2023-05-14T01:27:36.000Z,8.25
2023-05-14T01:32:35.000Z,8.55
2023-05-14T01:37:35.000Z,9.3
2023-05-14T01:42:35.000Z,12.87
2023-05-14T01:47:35.000Z,9.82
2023-05-14T01:52:35.000Z,9.82
2023-05-14T01:57:35.000Z,8.91
2023-05-14T02:02:36.000Z,8.66
2023-05-14T02:07:36.000Z,8.61
2023-05-14T02:12:36.000Z,8.16
2023-05-14T02:17:35.000Z,7.89
2023-05-14T02:22:35.000Z,8.31
2023-05-14T02:27:35.000Z,10.77
2023-05-14T02:32:36.000Z,8.22
2023-05-14T02:37:36.000Z,7.95
2023-05-14T02:42:36.000Z,8.23
2023-05-14T02:47:36.000Z,8.38
2023-05-14T02:52:36.000Z,7.69
2023-05-14T02:57:36.000Z,7.85
2023-05-14T03:02:36.000Z,7.4
2023-05-14T03:07:36.000Z,7.4
2023-05-14T03:12:36.000Z,7.9
2023-05-14T03:17:35.000Z,7.73
2023-05-14T03:22:35.000Z,7.71
2023-05-14T03:27:36.000Z,8.48
2023-05-14T03:32:35.000Z,7.97
2023-05-14T03:37:36.000Z,8.67
2023-05-14T03:42:35.000Z,8.34
2023-05-14T03:47:36.000Z,9.55
2023-05-14T03:52:35.000Z,9.2
2023-05-14T03:57:36.000Z,6.29
2023-05-14T04:02:35.000Z,6.66
2023-05-14T04:07:35.000Z,7.17
2023-05-14T04:12:35.000Z,7.17
2023-05-14T04:17:35.000Z,7.76
2023-05-14T04:22:35.000Z,7.43
2023-05-14T04:27:35.000Z,6.48
2023-05-14T04:32:35.000Z,6.44
2023-05-14T04:37:35.000Z,6.03
2023-05-14T04:42:35.000Z,5.4
2023-05-14T04:47:35.000Z,6.93
2023-05-14T04:52:36.000Z,6.71
2023-05-14T04:57:35.000Z,5.42
2023-05-14T05:02:36.000Z,5.75
2023-05-14T05:07:35.000Z,6.44
2023-05-14T05:12:36.000Z,4.95
2023-05-14T05:17:36.000Z,4.79
2023-05-14T05:22:36.000Z,4.35
2023-05-14T05:27:36.000Z,4.35
2023-05-14T05:32:36.000Z,4.13
2023-05-14T05:37:36.000Z,4.13
2023-05-14T05:42:35.000Z,3.68
2023-05-14T05:47:36.000Z,3.34
2023-05-14T05:52:36.000Z,3.8
2023-05-14T05:57:36.000Z,4.42
2023-05-14T06:02:36.000Z,3.94
2023-05-14T06:07:35.000Z,3.38
2023-05-14T06:12:36.000Z,2.82
2023-05-14T06:17:36.000Z,2.8
2023-05-14T06:22:35.000Z,2.28
2023-05-14T06:27:35.000Z,2.23
2023-05-14T06:32:35.000Z,2.34
2023-05-14T06:37:36.000Z,2.34
2023-05-14T06:42:36.000Z,2.23
2023-05-14T06:47:35.000Z,2.41
2023-05-14T06:52:35.000Z,2.52
2023-05-14T06:57:35.000Z,3.69
2023-05-14T07:02:35.000Z,2.68
2023-05-14T07:07:36.000Z,2.38
2023-05-14T07:12:35.000Z,2.44
2023-05-14T07:17:36.000Z,2.48
2023-05-14T07:22:36.000Z,2.62
2023-05-14T07:27:36.000Z,3.05
2023-05-14T07:32:36.000Z,3.85
2023-05-14T07:37:36.000Z,3.23
2023-05-14T07:42:46.000Z,3.71
2023-05-14T07:47:35.000Z,2.46
2023-05-14T07:52:35.000Z,2.46
2023-05-14T07:57:36.000Z,2.71
2023-05-14T08:02:36.000Z,2.08
2023-05-14T08:07:36.000Z,1.24
2023-05-14T08:12:35.000Z,2.34
2023-05-14T08:17:36.000Z,3.06
2023-05-14T08:22:36.000Z,4.55
2023-05-14T08:27:36.000Z,3.26
2023-05-14T08:32:36.000Z,2.7
2023-05-14T08:37:35.000Z,3.48
2023-05-14T08:42:35.000Z,2.71
2023-05-14T08:47:36.000Z,2.73
2023-05-14T08:52:36.000Z,2.18
2023-05-14T08:57:35.000Z,2.18
2023-05-14T09:02:36.000Z,2.13
2023-05-14T09:07:35.000Z,3.79
2023-05-14T09:12:35.000Z,2.83
2023-05-14T09:17:36.000Z,3.68
2023-05-14T09:22:35.000Z,2.15
2023-05-14T09:27:36.000Z,2.39
2023-05-14T09:32:35.000Z,2.22
2023-05-14T09:37:36.000Z,2.04
2023-05-14T09:42:35.000Z,2.31
2023-05-14T09:47:35.000Z,3.43
2023-05-14T09:52:35.000Z,4.32
2023-05-14T09:57:35.000Z,4.27
2023-05-14T10:02:36.000Z,3.21
2023-05-14T10:07:36.000Z,2.6
2023-05-14T10:12:36.000Z,2.6
2023-05-14T10:17:36.000Z,2.9
2023-05-14T10:22:35.000Z,2.73
2023-05-14T10:27:36.000Z,3.93
2023-05-14T10:32:35.000Z,3.94
2023-05-14T10:37:36.000Z,3.49
2023-05-14T10:42:35.000Z,4.05
2023-05-14T10:47:35.000Z,3.88
2023-05-14T10:52:36.000Z,4.16
2023-05-14T10:57:35.000Z,3.38
2023-05-14T11:02:36.000Z,2.78
2023-05-14T11:07:35.000Z,3.21
2023-05-14T11:12:35.000Z,3.45
2023-05-14T11:17:36.000Z,3.95
2023-05-14T11:22:36.000Z,3.66
2023-05-14T11:27:35.000Z,3.66
2023-05-14T11:32:35.000Z,3.19
2023-05-14T11:37:36.000Z,3.86
2023-05-14T11:42:36.000Z,3.32
2023-05-14T11:47:36.000Z,2.53
2023-05-14T11:52:37.000Z,3.34
2023-05-14T11:57:36.000Z,3.49
2023-05-14T12:02:35.000Z,4.39
2023-05-14T12:07:36.000Z,3.67
2023-05-14T12:12:36.000Z,3.58
2023-05-14T12:17:36.000Z,3.38
2023-05-14T12:22:36.000Z,4.6
2023-05-14T12:27:36.000Z,5.26
2023-05-14T12:32:35.000Z,4.01
2023-05-14T12:37:38.000Z,4.01
2023-05-14T12:42:36.000Z,7.81
2023-05-14T12:47:35.000Z,7.01
2023-05-14T12:52:43.000Z,6.74
2023-05-14T12:57:35.000Z,7.01
2023-05-14T13:02:36.000Z,6.99
2023-05-14T13:07:35.000Z,6.86
2023-05-14T13:12:36.000Z,6.82
2023-05-14T13:17:36.000Z,6.25
2023-05-14T13:22:35.000Z,5.59
2023-05-14T13:27:36.000Z,5.25
2023-05-14T13:32:36.000Z,6.54
2023-05-14T13:37:35.000Z,6.01
2023-05-14T13:42:36.000Z,6.45
2023-05-14T13:47:36.000Z,7.16
2023-05-14T13:52:35.000Z,7.16
2023-05-14T13:57:35.000Z,6.92
2023-05-14T14:02:36.000Z,6.27
2023-05-14T14:07:35.000Z,6.31
2023-05-14T14:12:36.000Z,6.87
2023-05-14T14:17:35.000Z,9.27
2023-05-14T14:22:39.000Z,8.78
2023-05-14T14:27:35.000Z,6.81
2023-05-14T14:32:35.000Z,15.17
2023-05-14T14:37:36.000Z,8.52
2023-05-14T14:42:35.000Z,8.93
2023-05-14T14:47:36.000Z,8.93
2023-05-14T14:52:35.000Z,8.23
2023-05-14T14:57:36.000Z,10.8
2023-05-14T15:02:36.000Z,10.8
2023-05-14T15:07:35.000Z,8.85
2023-05-14T15:12:36.000Z,8.44
2023-05-14T15:17:36.000Z,8.64
2023-05-14T15:22:35.000Z,8.68
2023-05-14T15:27:36.000Z,7.12
2023-05-14T15:32:35.000Z,7.87
2023-05-14T15:37:35.000Z,8.08
2023-05-14T15:42:35.000Z,8.72
2023-05-14T15:47:36.000Z,9.9
2023-05-14T15:52:35.000Z,9.08
2023-05-14T15:57:35.000Z,10.1
2023-05-14T16:02:35.000Z,11.57
2023-05-14T16:07:35.000Z,12.03
2023-05-14T16:12:36.000Z,14.31
2023-05-14T16:17:35.000Z,14.31
2023-05-14T16:22:36.000Z,14.77
2023-05-14T16:27:35.000Z,12.06
2023-05-14T16:32:36.000Z,11.28
2023-05-14T16:37:36.000Z,10.77
2023-05-14T16:42:35.000Z,10.46
2023-05-14T16:47:36.000Z,9.14
2023-05-14T16:52:35.000Z,8.43
2023-05-14T16:57:35.000Z,6.22
2023-05-14T17:02:36.000Z,5.88
2023-05-14T17:07:36.000Z,6.08
2023-05-14T17:12:36.000Z,5.98
2023-05-14T17:17:35.000Z,7.17
2023-05-14T17:22:35.000Z,7.12
2023-05-14T17:27:40.000Z,7.06
2023-05-14T17:32:36.000Z,7.06
2023-05-14T17:37:36.000Z,6.6
2023-05-14T17:42:35.000Z,7.17
2023-05-14T17:47:36.000Z,7.49
2023-05-14T17:52:35.000Z,8.34
2023-05-14T17:57:35.000Z,9.21
2023-05-14T18:02:36.000Z,9.4
2023-05-14T18:07:35.000Z,12.43
2023-05-14T18:12:36.000Z,16.27
2023-05-14T18:17:36.000Z,16.17
2023-05-14T18:22:35.000Z,15.41
2023-05-14T18:27:36.000Z,15.49
2023-05-14T18:32:36.000Z,12.66
2023-05-14T18:37:36.000Z,14.38
2023-05-14T18:42:36.000Z,14.38
2023-05-14T18:47:36.000Z,13.68
2023-05-14T18:52:36.000Z,11.07
2023-05-14T18:57:35.000Z,12.67
2023-05-14T19:02:36.000Z,15.08
2023-05-14T19:07:35.000Z,14.89
2023-05-14T19:12:36.000Z,15.01
2023-05-14T19:17:36.000Z,14.5
2023-05-14T19:22:36.000Z,14.57
2023-05-14T19:27:36.000Z,14.64
2023-05-14T19:32:35.000Z,13.63
2023-05-14T19:37:35.000Z,25.25
2023-05-14T19:42:36.000Z,37.92
2023-05-14T19:47:36.000Z,39.98
2023-05-14T19:52:36.000Z,39.98
2023-05-14T19:57:36.000Z,48.43
2023-05-14T20:02:35.000Z,43.84
2023-05-14T20:07:36.000Z,35.47
2023-05-14T20:12:36.000Z,30.74
2023-05-14T20:17:36.000Z,28.54
2023-05-14T20:22:36.000Z,25.56
2023-05-14T20:27:35.000Z,27.17
2023-05-14T20:32:35.000Z,16.35
2023-05-14T20:37:35.000Z,13.93
2023-05-14T20:42:36.000Z,12.97
2023-05-14T20:47:35.000Z,14.06
2023-05-14T20:52:36.000Z,13.01
2023-05-14T20:57:35.000Z,11.89
2023-05-14T21:02:36.000Z,12.27
2023-05-14T21:07:38.000Z,12.27
2023-05-14T21:12:36.000Z,16.1
2023-05-14T21:17:36.000Z,16.33
2023-05-14T21:22:36.000Z,9.87
2023-05-14T21:27:36.000Z,9.94
2023-05-14T21:32:35.000Z,10.33
2023-05-14T21:37:35.000Z,9.71
2023-05-14T21:42:35.000Z,8.82
2023-05-14T21:47:36.000Z,10.99
2023-05-14T21:52:36.000Z,12.63
2023-05-14T21:57:38.000Z,13.24
2023-05-14T22:02:35.000Z,12.76
2023-05-14T22:07:36.000Z,12.87
2023-05-14T22:12:35.000Z,12.87
2023-05-14T22:17:35.000Z,16.4
2023-05-14T22:22:36.000Z,16.56
2023-05-14T22:27:35.000Z,14
2023-05-14T22:32:36.000Z,14.08
2023-05-14T22:37:35.000Z,17.73
2023-05-14T22:42:35.000Z,18.63
2023-05-14T22:47:35.000Z,20.9
2023-05-14T22:52:38.000Z,23.33
2023-05-14T22:57:35.000Z,20.03
2023-05-14T23:02:36.000Z,25.57
2023-05-14T23:07:35.000Z,32.71
2023-05-14T23:12:36.000Z,36.27
2023-05-14T23:17:36.000Z,33.65
2023-05-14T23:22:35.000Z,33.82
2023-05-14T23:27:35.000Z,33.82
2023-05-14T23:32:35.000Z,43.02
2023-05-14T23:37:35.000Z,48.37
2023-05-14T23:42:36.000Z,48.44
2023-05-14T23:47:36.000Z,50.21
2023-05-14T23:52:35.000Z,49.38
2023-05-14T23:57:36.000Z,53.82
